sensor_id;sensor_type;location;lat;lon;timestamp;temperature;humidity
47022;DHT22;32779;52.264;6.154;2023-02-01T00:00:15;4.50;99.90
47022;DHT22;32779;52.264;6.154;2023-02-01T00:02:40;4.50;99.90
47022;DHT22;32779;52.264;6.154;2023-02-01T00:05:08;4.50;99.90
47022;DHT22;32779;52.264;6.154;2023-02-01T00:07:34;4.50;99.90
47022;DHT22;32779;52.264;6.154;2023-02-01T00:10:00;4.50;99.90
47022;DHT22;32779;52.264;6.154;2023-02-01T00:12:26;4.50;99.90
47022;DHT22;32779;52.264;6.154;2023-02-01T00:14:51;4.50;99.90
47022;DHT22;32779;52.264;6.154;2023-02-01T00:17:17;4.50;99.90
47022;DHT22;32779;52.264;6.154;2023-02-01T00:19:43;4.60;99.90
47022;DHT22;32779;52.264;6.154;2023-02-01T00:22:11;4.50;99.90
47022;DHT22;32779;52.264;6.154;2023-02-01T00:24:37;4.60;99.90
47022;DHT22;32779;52.264;6.154;2023-02-01T00:27:03;4.60;99.90
47022;DHT22;32779;52.264;6.154;2023-02-01T00:29:28;4.70;99.90
47022;DHT22;32779;52.264;6.154;2023-02-01T00:31:54;4.60;99.90
47022;DHT22;32779;52.264;6.154;2023-02-01T00:34:20;4.60;99.90
47022;DHT22;32779;52.264;6.154;2023-02-01T00:36:46;4.60;99.90
47022;DHT22;32779;52.264;6.154;2023-02-01T00:39:12;4.60;99.90
47022;DHT22;32779;52.264;6.154;2023-02-01T00:41:38;4.60;99.90
47022;DHT22;32779;52.264;6.154;2023-02-01T00:44:04;4.60;99.90
47022;DHT22;32779;52.264;6.154;2023-02-01T00:46:29;4.60;99.90
47022;DHT22;32779;52.264;6.154;2023-02-01T00:48:55;4.60;99.90
47022;DHT22;32779;52.264;6.154;2023-02-01T00:51:23;4.70;99.90
47022;DHT22;32779;52.264;6.154;2023-02-01T00:53:49;4.70;99.90
47022;DHT22;32779;52.264;6.154;2023-02-01T00:56:15;4.70;99.90
47022;DHT22;32779;52.264;6.154;2023-02-01T00:58:41;4.70;99.90
47022;DHT22;32779;52.264;6.154;2023-02-01T01:01:14;4.70;99.90
47022;DHT22;32779;52.264;6.154;2023-02-01T01:03:45;4.70;99.90
47022;DHT22;32779;52.264;6.154;2023-02-01T01:06:13;4.70;99.90
47022;DHT22;32779;52.264;6.154;2023-02-01T01:08:40;4.70;99.90
47022;DHT22;32779;52.264;6.154;2023-02-01T01:11:08;4.70;99.90
47022;DHT22;32779;52.264;6.154;2023-02-01T01:13:34;4.70;99.90
47022;DHT22;32779;52.264;6.154;2023-02-01T01:16:05;4.70;99.90
47022;DHT22;32779;52.264;6.154;2023-02-01T01:18:32;4.70;99.90
47022;DHT22;32779;52.264;6.154;2023-02-01T01:20:58;4.70;99.90
47022;DHT22;32779;52.264;6.154;2023-02-01T01:23:24;4.70;99.90
47022;DHT22;32779;52.264;6.154;2023-02-01T01:25:50;4.70;99.90
47022;DHT22;32779;52.264;6.154;2023-02-01T01:28:16;4.80;99.90
47022;DHT22;32779;52.264;6.154;2023-02-01T01:30:42;4.80;99.90
47022;DHT22;32779;52.264;6.154;2023-02-01T01:33:08;4.80;99.90
47022;DHT22;32779;52.264;6.154;2023-02-01T01:35:34;4.80;99.90
47022;DHT22;32779;52.264;6.154;2023-02-01T01:38:00;4.80;99.90
47022;DHT22;32779;52.264;6.154;2023-02-01T01:40:28;4.80;99.90
47022;DHT22;32779;52.264;6.154;2023-02-01T01:42:54;4.80;99.90
47022;DHT22;32779;52.264;6.154;2023-02-01T01:48:13;4.80;99.90
47022;DHT22;32779;52.264;6.154;2023-02-01T01:50:42;4.70;99.90
47022;DHT22;32779;52.264;6.154;2023-02-01T01:53:12;4.70;99.90
47022;DHT22;32779;52.264;6.154;2023-02-01T01:55:42;4.70;99.90
47022;DHT22;32779;52.264;6.154;2023-02-01T01:58:12;4.60;99.90
47022;DHT22;32779;52.264;6.154;2023-02-01T02:00:39;4.60;99.90
47022;DHT22;32779;52.264;6.154;2023-02-01T02:03:21;4.60;99.90
47022;DHT22;32779;52.264;6.154;2023-02-01T02:05:49;4.60;99.90
47022;DHT22;32779;52.264;6.154;2023-02-01T02:08:17;4.60;99.90
47022;DHT22;32779;52.264;6.154;2023-02-01T02:10:43;4.60;99.90
47022;DHT22;32779;52.264;6.154;2023-02-01T02:13:35;4.60;99.90
47022;DHT22;32779;52.264;6.154;2023-02-01T02:27:39;4.80;99.90
47022;DHT22;32779;52.264;6.154;2023-02-01T02:36:01;5.20;99.90
47022;DHT22;32779;52.264;6.154;2023-02-01T02:41:19;5.30;99.90
47022;DHT22;32779;52.264;6.154;2023-02-01T02:47:36;5.50;99.90
47022;DHT22;32779;52.264;6.154;2023-02-01T02:50:38;5.60;99.90
47022;DHT22;32779;52.264;6.154;2023-02-01T02:56:42;5.70;99.90
47022;DHT22;32779;52.264;6.154;2023-02-01T02:59:28;5.70;99.90
47022;DHT22;32779;52.264;6.154;2023-02-01T03:02:13;5.80;99.90
47022;DHT22;32779;52.264;6.154;2023-02-01T03:04:58;5.80;99.90
47022;DHT22;32779;52.264;6.154;2023-02-01T03:10:32;5.90;99.90
47022;DHT22;32779;52.264;6.154;2023-02-01T03:13:15;5.90;99.90
47022;DHT22;32779;52.264;6.154;2023-02-01T03:21:26;5.80;99.90
47022;DHT22;32779;52.264;6.154;2023-02-01T03:23:53;5.90;99.90
47022;DHT22;32779;52.264;6.154;2023-02-01T03:26:22;5.90;99.90
47022;DHT22;32779;52.264;6.154;2023-02-01T03:28:57;5.90;99.90
47022;DHT22;32779;52.264;6.154;2023-02-01T03:31:25;5.90;99.90
47022;DHT22;32779;52.264;6.154;2023-02-01T03:33:52;5.90;99.90
47022;DHT22;32779;52.264;6.154;2023-02-01T03:36:34;5.90;99.90
47022;DHT22;32779;52.264;6.154;2023-02-01T03:39:19;5.90;99.90
47022;DHT22;32779;52.264;6.154;2023-02-01T03:41:58;6.00;99.90
47022;DHT22;32779;52.264;6.154;2023-02-01T03:44:38;6.00;99.90
47022;DHT22;32779;52.264;6.154;2023-02-01T03:49:44;6.10;99.90
47022;DHT22;32779;52.264;6.154;2023-02-01T03:52:15;6.10;99.90
47022;DHT22;32779;52.264;6.154;2023-02-01T03:54:42;6.10;99.90
47022;DHT22;32779;52.264;6.154;2023-02-01T03:57:12;6.10;99.90
47022;DHT22;32779;52.264;6.154;2023-02-01T03:59:40;6.10;99.90
47022;DHT22;32779;52.264;6.154;2023-02-01T04:02:06;6.10;99.90
47022;DHT22;32779;52.264;6.154;2023-02-01T04:04:33;6.10;99.90
47022;DHT22;32779;52.264;6.154;2023-02-01T04:06:59;6.10;99.90
47022;DHT22;32779;52.264;6.154;2023-02-01T04:09:24;6.10;99.90
47022;DHT22;32779;52.264;6.154;2023-02-01T04:11:50;6.10;99.90
47022;DHT22;32779;52.264;6.154;2023-02-01T04:14:16;6.10;99.90
47022;DHT22;32779;52.264;6.154;2023-02-01T04:16:42;6.10;99.90
47022;DHT22;32779;52.264;6.154;2023-02-01T04:19:07;6.10;99.90
47022;DHT22;32779;52.264;6.154;2023-02-01T04:21:33;6.10;99.90
47022;DHT22;32779;52.264;6.154;2023-02-01T04:23:58;6.10;99.90
47022;DHT22;32779;52.264;6.154;2023-02-01T04:26:24;6.10;99.90
47022;DHT22;32779;52.264;6.154;2023-02-01T04:28:50;6.20;99.90
47022;DHT22;32779;52.264;6.154;2023-02-01T04:31:17;6.10;99.90
47022;DHT22;32779;52.264;6.154;2023-02-01T04:33:43;6.20;99.90
47022;DHT22;32779;52.264;6.154;2023-02-01T04:36:09;6.20;99.90
47022;DHT22;32779;52.264;6.154;2023-02-01T04:38:35;6.20;99.90
47022;DHT22;32779;52.264;6.154;2023-02-01T04:41:01;6.30;99.90
47022;DHT22;32779;52.264;6.154;2023-02-01T04:43:26;6.30;99.90
47022;DHT22;32779;52.264;6.154;2023-02-01T04:45:52;6.30;99.90
47022;DHT22;32779;52.264;6.154;2023-02-01T04:48:20;6.30;99.90
47022;DHT22;32779;52.264;6.154;2023-02-01T04:50:46;6.30;99.90
47022;DHT22;32779;52.264;6.154;2023-02-01T04:53:16;6.30;99.90
47022;DHT22;32779;52.264;6.154;2023-02-01T04:55:43;6.30;99.90
47022;DHT22;32779;52.264;6.154;2023-02-01T04:58:09;6.30;99.90
47022;DHT22;32779;52.264;6.154;2023-02-01T05:00:36;6.30;99.90
47022;DHT22;32779;52.264;6.154;2023-02-01T05:03:02;6.30;99.90
47022;DHT22;32779;52.264;6.154;2023-02-01T05:05:28;6.30;99.90
47022;DHT22;32779;52.264;6.154;2023-02-01T05:07:54;6.30;99.90
47022;DHT22;32779;52.264;6.154;2023-02-01T05:10:20;6.20;99.90
47022;DHT22;32779;52.264;6.154;2023-02-01T05:12:46;6.20;99.90
47022;DHT22;32779;52.264;6.154;2023-02-01T05:15:30;6.20;99.90
47022;DHT22;32779;52.264;6.154;2023-02-01T05:17:57;6.20;99.90
47022;DHT22;32779;52.264;6.154;2023-02-01T05:20:23;6.20;99.90
47022;DHT22;32779;52.264;6.154;2023-02-01T05:22:48;6.10;99.90
47022;DHT22;32779;52.264;6.154;2023-02-01T05:25:14;6.10;99.90
47022;DHT22;32779;52.264;6.154;2023-02-01T05:27:40;6.10;99.90
47022;DHT22;32779;52.264;6.154;2023-02-01T05:30:06;6.10;99.90
47022;DHT22;32779;52.264;6.154;2023-02-01T05:32:32;6.00;99.90
47022;DHT22;32779;52.264;6.154;2023-02-01T05:34:58;6.00;99.90
47022;DHT22;32779;52.264;6.154;2023-02-01T05:37:23;6.00;99.90
47022;DHT22;32779;52.264;6.154;2023-02-01T05:39:49;5.90;99.90
47022;DHT22;32779;52.264;6.154;2023-02-01T05:42:15;5.90;99.90
47022;DHT22;32779;52.264;6.154;2023-02-01T05:44:41;5.90;99.90
47022;DHT22;32779;52.264;6.154;2023-02-01T05:47:07;5.90;99.90
47022;DHT22;32779;52.264;6.154;2023-02-01T05:49:33;6.00;99.90
47022;DHT22;32779;52.264;6.154;2023-02-01T05:51:58;6.00;99.90
47022;DHT22;32779;52.264;6.154;2023-02-01T05:54:24;6.00;99.90
47022;DHT22;32779;52.264;6.154;2023-02-01T05:56:50;6.00;99.90
47022;DHT22;32779;52.264;6.154;2023-02-01T05:59:15;6.00;99.90
47022;DHT22;32779;52.264;6.154;2023-02-01T06:01:41;6.10;99.90
47022;DHT22;32779;52.264;6.154;2023-02-01T06:04:07;6.10;99.90
47022;DHT22;32779;52.264;6.154;2023-02-01T06:06:32;6.10;99.90
47022;DHT22;32779;52.264;6.154;2023-02-01T06:08:58;6.10;99.90
47022;DHT22;32779;52.264;6.154;2023-02-01T06:11:25;6.10;99.90
47022;DHT22;32779;52.264;6.154;2023-02-01T06:13:51;6.20;99.90
47022;DHT22;32779;52.264;6.154;2023-02-01T06:16:16;6.20;99.90
47022;DHT22;32779;52.264;6.154;2023-02-01T06:18:42;6.20;99.90
47022;DHT22;32779;52.264;6.154;2023-02-01T06:21:08;6.20;99.90
47022;DHT22;32779;52.264;6.154;2023-02-01T06:23:35;6.20;99.90
47022;DHT22;32779;52.264;6.154;2023-02-01T06:26:06;6.30;99.90
47022;DHT22;32779;52.264;6.154;2023-02-01T06:28:35;6.30;99.90
47022;DHT22;32779;52.264;6.154;2023-02-01T06:31:05;6.30;99.90
47022;DHT22;32779;52.264;6.154;2023-02-01T06:33:32;6.30;99.90
47022;DHT22;32779;52.264;6.154;2023-02-01T06:35:59;6.30;99.90
47022;DHT22;32779;52.264;6.154;2023-02-01T06:38:25;6.30;99.90
47022;DHT22;32779;52.264;6.154;2023-02-01T06:40:56;6.30;99.90
47022;DHT22;32779;52.264;6.154;2023-02-01T06:43:26;6.30;99.90
47022;DHT22;32779;52.264;6.154;2023-02-01T06:45:52;6.30;99.90
47022;DHT22;32779;52.264;6.154;2023-02-01T06:48:18;6.30;99.90
47022;DHT22;32779;52.264;6.154;2023-02-01T06:50:43;6.30;99.90
47022;DHT22;32779;52.264;6.154;2023-02-01T06:53:09;6.30;99.90
47022;DHT22;32779;52.264;6.154;2023-02-01T06:55:35;6.30;99.90
47022;DHT22;32779;52.264;6.154;2023-02-01T06:58:01;6.40;99.90
47022;DHT22;32779;52.264;6.154;2023-02-01T07:00:27;6.40;99.90
47022;DHT22;32779;52.264;6.154;2023-02-01T07:02:53;6.40;99.90
47022;DHT22;32779;52.264;6.154;2023-02-01T07:05:19;6.30;99.90
47022;DHT22;32779;52.264;6.154;2023-02-01T07:07:45;6.40;99.90
47022;DHT22;32779;52.264;6.154;2023-02-01T07:10:11;6.40;99.90
47022;DHT22;32779;52.264;6.154;2023-02-01T07:12:36;6.40;99.90
47022;DHT22;32779;52.264;6.154;2023-02-01T07:15:03;6.40;99.90
47022;DHT22;32779;52.264;6.154;2023-02-01T07:17:29;6.40;99.90
47022;DHT22;32779;52.264;6.154;2023-02-01T07:19:55;6.40;99.90
47022;DHT22;32779;52.264;6.154;2023-02-01T07:22:21;6.40;99.90
47022;DHT22;32779;52.264;6.154;2023-02-01T07:24:47;6.40;99.90
47022;DHT22;32779;52.264;6.154;2023-02-01T07:27:13;6.30;99.90
47022;DHT22;32779;52.264;6.154;2023-02-01T07:29:38;6.30;99.90
47022;DHT22;32779;52.264;6.154;2023-02-01T07:32:04;6.40;99.90
47022;DHT22;32779;52.264;6.154;2023-02-01T07:34:30;6.40;99.90
47022;DHT22;32779;52.264;6.154;2023-02-01T07:36:56;6.40;99.90
47022;DHT22;32779;52.264;6.154;2023-02-01T07:39:22;6.30;99.90
47022;DHT22;32779;52.264;6.154;2023-02-01T07:41:48;6.30;99.90
47022;DHT22;32779;52.264;6.154;2023-02-01T07:44:13;6.30;99.90
47022;DHT22;32779;52.264;6.154;2023-02-01T07:46:39;6.30;99.90
47022;DHT22;32779;52.264;6.154;2023-02-01T07:49:05;6.40;99.90
47022;DHT22;32779;52.264;6.154;2023-02-01T07:51:31;6.40;99.90
47022;DHT22;32779;52.264;6.154;2023-02-01T07:53:57;6.40;99.90
47022;DHT22;32779;52.264;6.154;2023-02-01T07:56:23;6.40;99.90
47022;DHT22;32779;52.264;6.154;2023-02-01T07:58:49;6.40;99.90
47022;DHT22;32779;52.264;6.154;2023-02-01T08:01:21;6.40;99.90
47022;DHT22;32779;52.264;6.154;2023-02-01T08:03:52;6.40;99.90
47022;DHT22;32779;52.264;6.154;2023-02-01T08:06:19;6.40;99.90
47022;DHT22;32779;52.264;6.154;2023-02-01T08:08:46;6.40;99.90
47022;DHT22;32779;52.264;6.154;2023-02-01T08:11:13;6.40;99.90
47022;DHT22;32779;52.264;6.154;2023-02-01T08:13:39;6.40;99.90
47022;DHT22;32779;52.264;6.154;2023-02-01T08:16:07;6.30;99.90
47022;DHT22;32779;52.264;6.154;2023-02-01T08:18:34;6.30;99.90
47022;DHT22;32779;52.264;6.154;2023-02-01T08:21:09;6.40;99.90
47022;DHT22;32779;52.264;6.154;2023-02-01T08:23:36;6.40;99.90
47022;DHT22;32779;52.264;6.154;2023-02-01T08:28:30;6.30;99.90
47022;DHT22;32779;52.264;6.154;2023-02-01T08:30:56;6.30;99.90
47022;DHT22;32779;52.264;6.154;2023-02-01T08:33:21;6.30;99.90
47022;DHT22;32779;52.264;6.154;2023-02-01T08:35:47;6.40;99.90
47022;DHT22;32779;52.264;6.154;2023-02-01T08:38:13;6.40;99.90
47022;DHT22;32779;52.264;6.154;2023-02-01T08:40:41;6.50;99.90
47022;DHT22;32779;52.264;6.154;2023-02-01T08:43:07;6.60;99.90
47022;DHT22;32779;52.264;6.154;2023-02-01T08:45:33;6.60;99.90
47022;DHT22;32779;52.264;6.154;2023-02-01T08:47:59;6.60;99.90
47022;DHT22;32779;52.264;6.154;2023-02-01T08:50:24;6.60;99.90
47022;DHT22;32779;52.264;6.154;2023-02-01T08:52:51;6.70;99.90
47022;DHT22;32779;52.264;6.154;2023-02-01T08:55:17;6.70;99.90
47022;DHT22;32779;52.264;6.154;2023-02-01T08:57:43;6.70;99.90
47022;DHT22;32779;52.264;6.154;2023-02-01T09:00:12;6.70;99.90
47022;DHT22;32779;52.264;6.154;2023-02-01T09:02:39;6.80;99.90
47022;DHT22;32779;52.264;6.154;2023-02-01T09:05:05;6.80;99.90
47022;DHT22;32779;52.264;6.154;2023-02-01T09:07:31;6.80;99.90
47022;DHT22;32779;52.264;6.154;2023-02-01T09:09:57;6.80;99.90
47022;DHT22;32779;52.264;6.154;2023-02-01T09:12:29;6.90;99.90
47022;DHT22;32779;52.264;6.154;2023-02-01T09:14:56;6.90;99.90
47022;DHT22;32779;52.264;6.154;2023-02-01T09:17:22;6.90;99.90
47022;DHT22;32779;52.264;6.154;2023-02-01T09:19:48;7.00;99.90
47022;DHT22;32779;52.264;6.154;2023-02-01T09:22:15;7.00;99.90
47022;DHT22;32779;52.264;6.154;2023-02-01T09:24:41;7.00;99.90
47022;DHT22;32779;52.264;6.154;2023-02-01T09:27:07;7.00;99.90
47022;DHT22;32779;52.264;6.154;2023-02-01T09:29:32;7.00;99.90
47022;DHT22;32779;52.264;6.154;2023-02-01T09:31:58;7.00;99.90
47022;DHT22;32779;52.264;6.154;2023-02-01T09:34:24;7.00;99.90
47022;DHT22;32779;52.264;6.154;2023-02-01T09:36:49;7.00;99.90
47022;DHT22;32779;52.264;6.154;2023-02-01T09:39:15;7.10;99.90
47022;DHT22;32779;52.264;6.154;2023-02-01T09:47:17;7.10;99.90
47022;DHT22;32779;52.264;6.154;2023-02-01T09:52:38;7.20;99.90
47022;DHT22;32779;52.264;6.154;2023-02-01T09:55:09;7.20;99.90
47022;DHT22;32779;52.264;6.154;2023-02-01T09:57:51;7.20;99.90
47022;DHT22;32779;52.264;6.154;2023-02-01T10:00:29;7.20;99.90
47022;DHT22;32779;52.264;6.154;2023-02-01T10:02:56;7.20;99.90
47022;DHT22;32779;52.264;6.154;2023-02-01T10:11:29;7.10;99.90
47022;DHT22;32779;52.264;6.154;2023-02-01T10:22:45;7.10;99.90
47022;DHT22;32779;52.264;6.154;2023-02-01T10:25:21;7.00;99.90
47022;DHT22;32779;52.264;6.154;2023-02-01T10:27:49;6.90;99.90
47022;DHT22;32779;52.264;6.154;2023-02-01T10:30:22;6.90;99.90
47022;DHT22;32779;52.264;6.154;2023-02-01T10:32:52;6.80;99.90
47022;DHT22;32779;52.264;6.154;2023-02-01T10:35:30;6.70;99.90
47022;DHT22;32779;52.264;6.154;2023-02-01T10:38:00;6.70;99.90
47022;DHT22;32779;52.264;6.154;2023-02-01T10:40:27;6.60;99.90
47022;DHT22;32779;52.264;6.154;2023-02-01T10:42:56;6.60;99.90
47022;DHT22;32779;52.264;6.154;2023-02-01T10:45:26;6.60;99.90
47022;DHT22;32779;52.264;6.154;2023-02-01T10:47:54;6.50;99.90
47022;DHT22;32779;52.264;6.154;2023-02-01T10:50:38;6.50;99.90
47022;DHT22;32779;52.264;6.154;2023-02-01T10:55:54;6.40;99.90
47022;DHT22;32779;52.264;6.154;2023-02-01T10:58:31;6.40;99.90
47022;DHT22;32779;52.264;6.154;2023-02-01T11:01:06;6.40;99.90
47022;DHT22;32779;52.264;6.154;2023-02-01T11:03:51;6.30;99.90
47022;DHT22;32779;52.264;6.154;2023-02-01T11:09:11;6.30;99.90
47022;DHT22;32779;52.264;6.154;2023-02-01T11:16:49;6.40;99.90
47022;DHT22;32779;52.264;6.154;2023-02-01T11:19:16;6.40;99.90
47022;DHT22;32779;52.264;6.154;2023-02-01T11:21:43;6.40;99.90
47022;DHT22;32779;52.264;6.154;2023-02-01T11:24:33;6.50;99.90
47022;DHT22;32779;52.264;6.154;2023-02-01T11:27:03;6.50;99.90
47022;DHT22;32779;52.264;6.154;2023-02-01T11:29:38;6.50;99.90
47022;DHT22;32779;52.264;6.154;2023-02-01T11:32:08;6.60;99.90
47022;DHT22;32779;52.264;6.154;2023-02-01T11:37:25;6.70;99.90
47022;DHT22;32779;52.264;6.154;2023-02-01T11:40:00;6.70;99.90
47022;DHT22;32779;52.264;6.154;2023-02-01T11:42:27;6.70;99.90
47022;DHT22;32779;52.264;6.154;2023-02-01T11:45:17;6.70;99.90
47022;DHT22;32779;52.264;6.154;2023-02-01T11:47:43;6.70;99.90
47022;DHT22;32779;52.264;6.154;2023-02-01T11:50:22;6.80;99.90
47022;DHT22;32779;52.264;6.154;2023-02-01T11:53:13;6.80;99.90
47022;DHT22;32779;52.264;6.154;2023-02-01T11:55:56;6.80;99.90
47022;DHT22;32779;52.264;6.154;2023-02-01T11:58:26;6.90;99.90
47022;DHT22;32779;52.264;6.154;2023-02-01T12:03:58;7.00;99.90
47022;DHT22;32779;52.264;6.154;2023-02-01T12:17:53;7.40;99.90
47022;DHT22;32779;52.264;6.154;2023-02-01T12:23:14;7.40;99.90
47022;DHT22;32779;52.264;6.154;2023-02-01T12:26:06;7.50;99.90
47022;DHT22;32779;52.264;6.154;2023-02-01T12:42:43;7.60;99.90
47022;DHT22;32779;52.264;6.154;2023-02-01T12:45:36;7.60;99.90
47022;DHT22;32779;52.264;6.154;2023-02-01T12:50:45;7.70;99.90
47022;DHT22;32779;52.264;6.154;2023-02-01T12:53:32;7.70;99.90
47022;DHT22;32779;52.264;6.154;2023-02-01T12:56:04;7.80;99.90
47022;DHT22;32779;52.264;6.154;2023-02-01T12:58:42;7.80;99.90
47022;DHT22;32779;52.264;6.154;2023-02-01T13:01:15;7.80;99.90
47022;DHT22;32779;52.264;6.154;2023-02-01T13:06:29;7.80;99.90
47022;DHT22;32779;52.264;6.154;2023-02-01T13:09:28;7.80;99.90
47022;DHT22;32779;52.264;6.154;2023-02-01T13:11:59;7.80;99.90
47022;DHT22;32779;52.264;6.154;2023-02-01T13:14:48;7.80;99.90
47022;DHT22;32779;52.264;6.154;2023-02-01T13:17:22;7.70;99.90
47022;DHT22;32779;52.264;6.154;2023-02-01T13:27:54;7.50;99.90
47022;DHT22;32779;52.264;6.154;2023-02-01T13:30:33;7.50;99.90
47022;DHT22;32779;52.264;6.154;2023-02-01T13:41:24;7.30;99.90
47022;DHT22;32779;52.264;6.154;2023-02-01T13:44:12;7.20;99.90
47022;DHT22;32779;52.264;6.154;2023-02-01T13:46:45;7.20;99.90
47022;DHT22;32779;52.264;6.154;2023-02-01T13:49:24;7.20;99.90
47022;DHT22;32779;52.264;6.154;2023-02-01T13:51:54;7.20;99.90
47022;DHT22;32779;52.264;6.154;2023-02-01T13:54:38;7.20;99.90
47022;DHT22;32779;52.264;6.154;2023-02-01T13:57:06;7.20;99.90
47022;DHT22;32779;52.264;6.154;2023-02-01T14:02:36;7.30;99.90
47022;DHT22;32779;52.264;6.154;2023-02-01T14:05:03;7.30;99.90
47022;DHT22;32779;52.264;6.154;2023-02-01T14:07:30;7.30;99.90
47022;DHT22;32779;52.264;6.154;2023-02-01T14:09:55;7.30;99.90
47022;DHT22;32779;52.264;6.154;2023-02-01T14:15:25;7.30;99.90
47022;DHT22;32779;52.264;6.154;2023-02-01T14:17:51;7.30;99.90
47022;DHT22;32779;52.264;6.154;2023-02-01T14:20:40;7.30;99.90
47022;DHT22;32779;52.264;6.154;2023-02-01T14:23:15;7.30;99.90
47022;DHT22;32779;52.264;6.154;2023-02-01T14:25:41;7.30;99.90
47022;DHT22;32779;52.264;6.154;2023-02-01T14:28:21;7.40;99.90
47022;DHT22;32779;52.264;6.154;2023-02-01T14:30:48;7.30;99.90
47022;DHT22;32779;52.264;6.154;2023-02-01T14:33:23;7.40;99.90
47022;DHT22;32779;52.264;6.154;2023-02-01T14:36:06;7.40;99.90
47022;DHT22;32779;52.264;6.154;2023-02-01T14:38:34;7.40;99.90
47022;DHT22;32779;52.264;6.154;2023-02-01T14:41:29;7.50;99.90
47022;DHT22;32779;52.264;6.154;2023-02-01T14:52:20;7.60;99.90
47022;DHT22;32779;52.264;6.154;2023-02-01T14:54:55;7.70;99.90
47022;DHT22;32779;52.264;6.154;2023-02-01T14:57:25;7.70;99.90
47022;DHT22;32779;52.264;6.154;2023-02-01T15:00:19;7.70;99.90
47022;DHT22;32779;52.264;6.154;2023-02-01T15:02:44;7.70;99.90
47022;DHT22;32779;52.264;6.154;2023-02-01T15:05:36;7.70;99.90
47022;DHT22;32779;52.264;6.154;2023-02-01T15:08:18;7.70;99.90
47022;DHT22;32779;52.264;6.154;2023-02-01T15:10:49;7.70;99.90
47022;DHT22;32779;52.264;6.154;2023-02-01T15:13:22;7.70;99.90
47022;DHT22;32779;52.264;6.154;2023-02-01T15:16:11;7.60;99.90
47022;DHT22;32779;52.264;6.154;2023-02-01T15:18:37;7.60;99.90
47022;DHT22;32779;52.264;6.154;2023-02-01T15:21:05;7.60;99.90
47022;DHT22;32779;52.264;6.154;2023-02-01T15:23:32;7.60;99.90
47022;DHT22;32779;52.264;6.154;2023-02-01T15:25:58;7.60;99.90
47022;DHT22;32779;52.264;6.154;2023-02-01T15:28:25;7.60;99.90
47022;DHT22;32779;52.264;6.154;2023-02-01T15:31:03;7.60;99.90
47022;DHT22;32779;52.264;6.154;2023-02-01T15:33:30;7.60;99.90
47022;DHT22;32779;52.264;6.154;2023-02-01T15:38:34;7.60;99.90
47022;DHT22;32779;52.264;6.154;2023-02-01T15:41:18;7.60;99.90
47022;DHT22;32779;52.264;6.154;2023-02-01T15:46:44;7.60;99.90
47022;DHT22;32779;52.264;6.154;2023-02-01T15:49:20;7.60;99.90
47022;DHT22;32779;52.264;6.154;2023-02-01T15:51:49;7.60;99.90
47022;DHT22;32779;52.264;6.154;2023-02-01T15:54:23;7.50;99.90
47022;DHT22;32779;52.264;6.154;2023-02-01T15:56:52;7.40;99.90
47022;DHT22;32779;52.264;6.154;2023-02-01T15:59:21;7.20;99.90
47022;DHT22;32779;52.264;6.154;2023-02-01T16:01:48;7.10;99.90
47022;DHT22;32779;52.264;6.154;2023-02-01T16:04:19;7.00;99.90
47022;DHT22;32779;52.264;6.154;2023-02-01T16:06:49;6.80;99.90
47022;DHT22;32779;52.264;6.154;2023-02-01T16:09:16;6.70;99.90
47022;DHT22;32779;52.264;6.154;2023-02-01T16:11:58;6.70;99.90
47022;DHT22;32779;52.264;6.154;2023-02-01T16:14:26;6.60;99.90
47022;DHT22;32779;52.264;6.154;2023-02-01T16:16:55;6.60;99.90
47022;DHT22;32779;52.264;6.154;2023-02-01T16:19:20;6.60;99.90
47022;DHT22;32779;52.264;6.154;2023-02-01T16:21:49;6.50;99.90
47022;DHT22;32779;52.264;6.154;2023-02-01T16:24:15;6.50;99.90
47022;DHT22;32779;52.264;6.154;2023-02-01T16:26:41;6.40;99.90
47022;DHT22;32779;52.264;6.154;2023-02-01T16:29:07;6.40;99.90
47022;DHT22;32779;52.264;6.154;2023-02-01T16:31:38;6.40;99.90
47022;DHT22;32779;52.264;6.154;2023-02-01T16:34:14;6.40;99.90
47022;DHT22;32779;52.264;6.154;2023-02-01T16:36:49;6.40;99.90
47022;DHT22;32779;52.264;6.154;2023-02-01T16:39:20;6.30;99.90
47022;DHT22;32779;52.264;6.154;2023-02-01T16:41:46;6.20;99.90
47022;DHT22;32779;52.264;6.154;2023-02-01T16:44:12;6.20;99.90
47022;DHT22;32779;52.264;6.154;2023-02-01T16:46:44;6.20;99.90
47022;DHT22;32779;52.264;6.154;2023-02-01T16:49:18;6.20;99.90
47022;DHT22;32779;52.264;6.154;2023-02-01T16:51:44;6.10;99.90
47022;DHT22;32779;52.264;6.154;2023-02-01T16:54:10;6.10;99.90
47022;DHT22;32779;52.264;6.154;2023-02-01T16:56:37;6.20;99.90
47022;DHT22;32779;52.264;6.154;2023-02-01T16:59:05;6.20;99.90
47022;DHT22;32779;52.264;6.154;2023-02-01T17:01:32;6.20;99.90
47022;DHT22;32779;52.264;6.154;2023-02-01T17:03:58;6.30;99.90
47022;DHT22;32779;52.264;6.154;2023-02-01T17:06:25;6.30;99.90
47022;DHT22;32779;52.264;6.154;2023-02-01T17:08:55;6.30;99.90
47022;DHT22;32779;52.264;6.154;2023-02-01T17:11:26;6.40;99.90
47022;DHT22;32779;52.264;6.154;2023-02-01T17:13:52;6.50;99.90
47022;DHT22;32779;52.264;6.154;2023-02-01T17:18:46;6.50;99.90
47022;DHT22;32779;52.264;6.154;2023-02-01T17:21:13;6.60;99.90
47022;DHT22;32779;52.264;6.154;2023-02-01T17:23:39;6.60;99.90
47022;DHT22;32779;52.264;6.154;2023-02-01T17:26:07;6.70;99.90
47022;DHT22;32779;52.264;6.154;2023-02-01T17:28:33;6.70;99.90
47022;DHT22;32779;52.264;6.154;2023-02-01T17:30:59;6.50;99.90
47022;DHT22;32779;52.264;6.154;2023-02-01T17:33:30;6.50;99.90
47022;DHT22;32779;52.264;6.154;2023-02-01T17:35:56;6.40;99.90
47022;DHT22;32779;52.264;6.154;2023-02-01T17:38:23;6.40;99.90
47022;DHT22;32779;52.264;6.154;2023-02-01T17:40:49;6.40;99.90
47022;DHT22;32779;52.264;6.154;2023-02-01T17:43:18;6.40;99.90
47022;DHT22;32779;52.264;6.154;2023-02-01T17:45:49;6.40;99.90
47022;DHT22;32779;52.264;6.154;2023-02-01T17:48:18;6.40;99.90
47022;DHT22;32779;52.264;6.154;2023-02-01T17:50:46;6.40;99.90
47022;DHT22;32779;52.264;6.154;2023-02-01T17:53:12;6.40;99.90
47022;DHT22;32779;52.264;6.154;2023-02-01T17:55:44;6.40;99.90
47022;DHT22;32779;52.264;6.154;2023-02-01T17:58:12;6.40;99.90
47022;DHT22;32779;52.264;6.154;2023-02-01T18:00:39;6.40;99.90
47022;DHT22;32779;52.264;6.154;2023-02-01T18:03:05;6.30;99.90
47022;DHT22;32779;52.264;6.154;2023-02-01T18:05:40;6.30;99.90
47022;DHT22;32779;52.264;6.154;2023-02-01T18:08:07;6.30;99.90
47022;DHT22;32779;52.264;6.154;2023-02-01T18:10:39;6.40;99.90
47022;DHT22;32779;52.264;6.154;2023-02-01T18:13:05;6.30;99.90
47022;DHT22;32779;52.264;6.154;2023-02-01T18:15:31;6.30;99.90
47022;DHT22;32779;52.264;6.154;2023-02-01T18:17:57;6.30;99.90
47022;DHT22;32779;52.264;6.154;2023-02-01T18:20:25;6.30;99.90
47022;DHT22;32779;52.264;6.154;2023-02-01T18:22:51;6.30;99.90
47022;DHT22;32779;52.264;6.154;2023-02-01T18:25:21;6.30;99.90
47022;DHT22;32779;52.264;6.154;2023-02-01T18:27:50;6.20;99.90
47022;DHT22;32779;52.264;6.154;2023-02-01T18:30:21;6.20;99.90
47022;DHT22;32779;52.264;6.154;2023-02-01T18:32:47;6.20;99.90
47022;DHT22;32779;52.264;6.154;2023-02-01T18:35:22;6.20;99.90